createdAt,value
2023-08-12T00:04:16.545Z,54.54
2023-08-12T00:09:19.384Z,53.34
2023-08-12T00:14:22.195Z,54.32
2023-08-12T00:19:28.740Z,55.74
2023-08-12T00:24:31.783Z,57.39
2023-08-12T00:29:34.569Z,58.01
2023-08-12T00:34:37.755Z,59.14
2023-08-12T00:39:40.642Z,59.89
2023-08-12T00:44:43.468Z,60.80
2023-08-12T00:49:46.900Z,69.52
2023-08-12T00:54:49.802Z,62.70
2023-08-12T00:59:52.855Z,53.76
2023-08-12T01:04:55.662Z,52.30
2023-08-12T01:09:58.517Z,53.87
2023-08-12T01:15:18.397Z,56.36
2023-08-12T01:20:28.425Z,57.80
2023-08-12T01:25:31.155Z,59.05
2023-08-12T01:30:38.995Z,59.68
2023-08-12T01:35:50.475Z,69.61
2023-08-12T01:40:53.685Z,64.97
2023-08-12T01:45:56.704Z,54.13
2023-08-12T01:50:59.961Z,53.30
2023-08-12T01:56:02.747Z,54.39
2023-08-12T02:01:05.499Z,55.45
2023-08-12T02:06:08.362Z,57.98
2023-08-12T02:11:11.548Z,59.41
2023-08-12T02:16:14.311Z,60.62
2023-08-12T02:21:17.717Z,69.61
2023-08-12T02:26:21.832Z,62.18
2023-08-12T02:31:24.649Z,52.76
2023-08-12T02:36:28.067Z,52.91
2023-08-12T02:41:30.888Z,55.44
2023-08-12T02:46:33.710Z,57.18
2023-08-12T02:51:37.434Z,58.22
2023-08-12T02:56:41.317Z,59.95
2023-08-12T03:01:44.164Z,68.84
2023-08-12T03:06:47.477Z,62.41
2023-08-12T03:11:51.228Z,52.88
2023-08-12T03:16:54.065Z,52.20
2023-08-12T03:21:56.870Z,53.97
2023-08-12T03:26:59.691Z,56.42
2023-08-12T03:32:02.584Z,58.11
2023-08-12T03:37:05.634Z,60.64
2023-08-12T03:42:08.479Z,68.70
2023-08-12T03:47:12.251Z,61.48
2023-08-12T03:52:15.546Z,53.07
2023-08-12T03:57:18.290Z,52.37
2023-08-12T04:02:21.125Z,54.72
2023-08-12T04:07:24.011Z,57.10
2023-08-12T04:12:26.833Z,60.10
2023-08-12T04:17:29.596Z,67.79
2023-08-12T04:22:32.417Z,62.05
2023-08-12T04:27:35.578Z,53.31
2023-08-12T04:32:38.401Z,53.26
2023-08-12T04:37:41.618Z,54.08
2023-08-12T04:42:44.342Z,55.84
2023-08-12T04:47:47.319Z,57.39
2023-08-12T04:52:51.270Z,59.56
2023-08-12T04:57:55.137Z,68.57
2023-08-12T05:02:58.103Z,60.57
2023-08-12T05:08:01.413Z,52.81
2023-08-12T05:13:04.468Z,53.85
2023-08-12T05:18:07.623Z,55.94
2023-08-12T05:23:10.524Z,57.31
2023-08-12T05:28:13.323Z,59.34
2023-08-12T05:33:16.422Z,59.93
2023-08-12T05:38:19.291Z,67.09
2023-08-12T05:43:22.097Z,60.48
2023-08-12T05:48:25.213Z,50.70
2023-08-12T05:53:28.070Z,52.03
2023-08-12T05:58:30.853Z,54.16
2023-08-12T06:03:33.661Z,55.50
2023-08-12T06:08:36.913Z,56.64
2023-08-12T06:13:39.685Z,57.43
2023-08-12T06:18:42.438Z,58.08
2023-08-12T06:23:45.390Z,58.22
2023-08-12T06:28:48.115Z,58.78
2023-08-12T06:33:50.867Z,58.88
2023-08-12T06:38:54.158Z,60.71
2023-08-12T06:43:57.399Z,61.63
2023-08-12T06:49:00.761Z,61.66
2023-08-12T06:54:03.787Z,60.79
2023-08-12T06:59:07.145Z,59.58
2023-08-12T07:04:10.018Z,59.62
2023-08-12T07:09:13.033Z,59.04
2023-08-12T07:14:17.175Z,58.68
2023-08-12T07:19:20.412Z,58.30
2023-08-12T07:24:23.962Z,57.91
2023-08-12T07:29:27.243Z,57.77
2023-08-12T07:34:31.500Z,56.69
2023-08-12T07:39:35.168Z,56.10
2023-08-12T07:44:38.057Z,55.42
2023-08-12T07:49:42.874Z,54.49
2023-08-12T07:54:45.995Z,54.14
2023-08-12T07:59:50.388Z,53.59
2023-08-12T08:04:53.338Z,53.33
2023-08-12T08:09:59.394Z,52.24
2023-08-12T08:15:04.358Z,51.63
2023-08-12T08:20:08.025Z,50.57
2023-08-12T08:25:11.526Z,49.90
2023-08-12T08:30:14.570Z,49.06
2023-08-12T08:35:17.741Z,48.91
2023-08-12T08:40:21.873Z,48.37
2023-08-12T08:45:26.706Z,46.84
2023-08-12T08:50:33.534Z,46.44
2023-08-12T08:55:38.674Z,46.20
2023-08-12T09:00:42.724Z,45.19
2023-08-12T09:05:54.024Z,44.15
2023-08-12T09:10:58.540Z,43.35
2023-08-12T09:16:02.389Z,43.91
2023-08-12T09:21:06.743Z,43.45
2023-08-12T09:26:19.217Z,41.88
2023-08-12T09:31:27.957Z,41.60
2023-08-12T09:36:32.222Z,41.48
2023-08-12T09:41:36.873Z,40.15
2023-08-12T09:46:40.211Z,39.73
2023-08-12T09:51:45.952Z,39.43
2023-08-12T09:56:50.463Z,39.43
2023-08-12T10:01:56.915Z,39.61
2023-08-12T10:07:01.743Z,38.05
2023-08-12T10:12:06.911Z,38.15
2023-08-12T10:17:11.009Z,37.46
2023-08-12T10:22:15.985Z,37.25
2023-08-12T10:27:19.805Z,37.01
2023-08-12T10:32:22.967Z,36.72
2023-08-12T10:37:27.672Z,36.74
2023-08-12T10:42:48.251Z,36.88
2023-08-12T10:48:00.836Z,35.76
2023-08-12T10:53:33.144Z,36.00
2023-08-12T10:58:45.625Z,35.40
2023-08-12T11:03:51.793Z,34.47
2023-08-12T11:08:55.049Z,34.63
2023-08-12T11:13:58.420Z,34.54
2023-08-12T11:19:01.310Z,34.47
2023-08-12T11:24:05.574Z,34.79
2023-08-12T11:29:12.557Z,34.24
2023-08-12T11:34:16.928Z,33.99
2023-08-12T11:39:19.960Z,34.18
2023-08-12T11:44:24.214Z,34.06
2023-08-12T11:49:26.988Z,33.64
2023-08-12T11:54:30.269Z,33.25
2023-08-12T11:59:33.286Z,33.13
2023-08-12T12:04:36.233Z,33.43
2023-08-12T12:09:43.947Z,33.03
2023-08-12T12:14:48.218Z,32.60
2023-08-12T12:19:59.876Z,33.24
2023-08-12T12:25:11.469Z,33.16
2023-08-12T12:30:16.418Z,32.46
2023-08-12T12:35:20.063Z,32.61
2023-08-12T12:40:22.988Z,32.73
2023-08-12T12:45:29.181Z,32.76
2023-08-12T12:50:34.633Z,32.75
2023-08-12T12:55:45.627Z,32.29
2023-08-12T13:00:56.702Z,32.01
2023-08-12T13:06:08.696Z,32.61
2023-08-12T13:11:12.590Z,32.95
2023-08-12T13:16:16.094Z,32.60
2023-08-12T13:21:21.100Z,32.83
2023-08-12T13:26:27.401Z,32.27
2023-08-12T13:31:30.701Z,32.51
2023-08-12T13:36:35.683Z,32.48
2023-08-12T13:41:44.846Z,32.41
2023-08-12T13:46:47.801Z,31.77
2023-08-12T13:51:54.025Z,31.61
2023-08-12T13:57:00.798Z,31.70
2023-08-12T14:02:04.162Z,31.74
2023-08-12T14:07:07.450Z,31.68
2023-08-12T14:12:25.216Z,31.75
2023-08-12T14:17:29.196Z,32.21
2023-08-12T14:22:32.494Z,31.97
2023-08-12T14:27:35.608Z,31.92
2023-08-12T14:32:38.496Z,31.80
2023-08-12T14:37:41.424Z,31.46
2023-08-12T14:42:44.208Z,31.08
2023-08-12T14:47:48.707Z,31.24
2023-08-12T14:52:51.484Z,31.01
2023-08-12T14:57:54.239Z,30.98
2023-08-12T15:02:57.010Z,29.58
2023-08-12T15:08:01.056Z,29.76
2023-08-12T15:13:05.653Z,29.92
2023-08-12T15:18:08.584Z,29.97
2023-08-12T15:23:12.048Z,30.40
2023-08-12T15:28:14.968Z,29.47
2023-08-12T15:33:18.068Z,29.53
2023-08-12T15:38:24.989Z,29.61
2023-08-12T15:43:29.199Z,29.24
2023-08-12T15:48:32.218Z,28.89
2023-08-12T15:53:36.579Z,28.70
2023-08-12T15:58:40.338Z,28.51
2023-08-12T16:03:43.526Z,28.42
2023-08-12T16:08:56.882Z,28.80
2023-08-12T16:14:11.344Z,29.07
2023-08-12T16:19:14.857Z,29.08
2023-08-12T16:24:17.703Z,29.36
2023-08-12T16:29:20.570Z,29.76
2023-08-12T16:34:23.905Z,30.23
2023-08-12T16:39:26.669Z,30.89
2023-08-12T16:44:29.819Z,31.48
2023-08-12T16:49:32.616Z,31.87
2023-08-12T16:54:35.449Z,32.60
2023-08-12T16:59:38.298Z,33.00
2023-08-12T17:04:41.521Z,33.76
2023-08-12T17:09:47.229Z,34.39
2023-08-12T17:14:50.582Z,34.56
2023-08-12T17:19:53.355Z,34.80
2023-08-12T17:24:56.175Z,34.99
2023-08-12T17:29:59.007Z,35.23
2023-08-12T17:35:01.872Z,35.44
2023-08-12T17:40:06.871Z,35.66
2023-08-12T17:45:09.792Z,35.82
2023-08-12T17:50:13.233Z,36.40
2023-08-12T17:55:16.200Z,36.60
2023-08-12T18:00:21.414Z,36.92
2023-08-12T18:05:25.117Z,37.89
2023-08-12T18:10:28.433Z,38.56
2023-08-12T18:15:31.275Z,38.92
2023-08-12T18:20:34.141Z,39.14
2023-08-12T18:25:36.955Z,39.57
2023-08-12T18:30:39.757Z,39.88
2023-08-12T18:35:42.601Z,40.39
2023-08-12T18:40:45.365Z,40.67
2023-08-12T18:45:48.109Z,41.73
2023-08-12T18:50:50.931Z,42.62
2023-08-12T18:55:54.138Z,43.47
2023-08-12T19:00:57.008Z,43.94
2023-08-12T19:06:01.055Z,44.33
2023-08-12T19:11:04.460Z,44.88
2023-08-12T19:16:07.270Z,45.50
2023-08-12T19:21:10.141Z,45.51
2023-08-12T19:26:12.873Z,45.47
2023-08-12T19:31:16.350Z,46.26
2023-08-12T19:36:19.130Z,46.50
2023-08-12T19:41:22.607Z,46.56
2023-08-12T19:46:26.108Z,46.87
2023-08-12T19:51:29.950Z,46.92
2023-08-12T19:56:36.379Z,47.22
2023-08-12T20:01:44.040Z,47.54
2023-08-12T20:06:49.142Z,47.68
2023-08-12T20:11:52.329Z,47.77
2023-08-12T20:16:55.400Z,47.96
2023-08-12T20:22:00.439Z,48.19
2023-08-12T20:27:04.092Z,48.49
2023-08-12T20:32:07.018Z,48.74
2023-08-12T20:37:09.960Z,49.02
2023-08-12T20:42:12.721Z,49.18
2023-08-12T20:47:15.926Z,49.23
2023-08-12T20:52:19.032Z,49.39
2023-08-12T20:57:21.756Z,49.55
2023-08-12T21:02:24.546Z,49.73
2023-08-12T21:07:27.659Z,50.03
2023-08-12T21:12:30.421Z,50.33
2023-08-12T21:17:33.275Z,50.58
2023-08-12T21:22:36.030Z,50.67
2023-08-12T21:27:38.791Z,50.84
2023-08-12T21:32:41.652Z,50.88
2023-08-12T21:37:44.455Z,51.14
2023-08-12T21:42:47.495Z,51.11
2023-08-12T21:47:50.388Z,50.96
2023-08-12T21:52:53.223Z,51.20
2023-08-12T21:57:56.029Z,51.27
2023-08-12T22:02:59.334Z,51.27
2023-08-12T22:08:02.705Z,51.16
2023-08-12T22:13:06.329Z,51.38
2023-08-12T22:18:09.265Z,51.51
2023-08-12T22:23:12.155Z,51.80
2023-08-12T22:28:15.096Z,51.62
2023-08-12T22:33:17.878Z,51.66
2023-08-12T22:38:21.116Z,51.66
2023-08-12T22:43:24.039Z,51.89
2023-08-12T22:48:26.930Z,51.98
2023-08-12T22:53:30.036Z,52.17
2023-08-12T22:58:32.948Z,52.18
2023-08-12T23:03:35.821Z,52.27
2023-08-12T23:08:38.592Z,52.28
2023-08-12T23:13:41.351Z,52.24
2023-08-12T23:18:44.448Z,52.41
2023-08-12T23:23:47.281Z,52.37
2023-08-12T23:28:50.089Z,52.53
2023-08-12T23:33:52.860Z,52.68
2023-08-12T23:38:55.698Z,52.74
2023-08-12T23:44:00.259Z,52.79
2023-08-12T23:49:03.085Z,52.83
2023-08-12T23:54:05.833Z,52.91
2023-08-12T23:59:08.580Z,52.91
